sensor_id;sensor_type;location;lat;lon;timestamp;pressure;altitude;pressure_sealevel;temperature;humidity
41706;BME280;27385;51.096;17.190;2023-06-22T00:00:58;100490.38;;;22.12;79.36
41706;BME280;27385;51.096;17.190;2023-06-22T00:03:36;100488.54;;;22.11;79.43
41706;BME280;27385;51.096;17.190;2023-06-22T00:06:07;100487.16;;;22.12;79.48
41706;BME280;27385;51.096;17.190;2023-06-22T00:08:38;100485.34;;;22.13;79.46
41706;BME280;27385;51.096;17.190;2023-06-22T00:11:09;100482.02;;;22.15;79.68
41706;BME280;27385;51.096;17.190;2023-06-22T00:13:40;100485.91;;;22.17;79.74
41706;BME280;27385;51.096;17.190;2023-06-22T00:16:11;100488.17;;;22.18;79.67
41706;BME280;27385;51.096;17.190;2023-06-22T00:18:42;100485.77;;;22.18;79.81
41706;BME280;27385;51.096;17.190;2023-06-22T00:21:16;100486.01;;;22.17;79.69
41706;BME280;27385;51.096;17.190;2023-06-22T00:23:51;100489.52;;;22.17;79.92
41706;BME280;27385;51.096;17.190;2023-06-22T00:26:22;100492.58;;;22.15;79.92
41706;BME280;27385;51.096;17.190;2023-06-22T00:28:54;100494.73;;;22.11;80.04
41706;BME280;27385;51.096;17.190;2023-06-22T00:31:25;100498.75;;;22.10;80.14
41706;BME280;27385;51.096;17.190;2023-06-22T00:33:58;100503.08;;;22.08;80.35
41706;BME280;27385;51.096;17.190;2023-06-22T00:36:31;100509.86;;;22.01;80.63
41706;BME280;27385;51.096;17.190;2023-06-22T00:39:02;100512.84;;;21.96;80.82
41706;BME280;27385;51.096;17.190;2023-06-22T00:41:35;100519.38;;;21.90;81.05
41706;BME280;27385;51.096;17.190;2023-06-22T00:44:06;100524.45;;;21.84;81.33
41706;BME280;27385;51.096;17.190;2023-06-22T00:46:38;100524.83;;;21.80;81.58
41706;BME280;27385;51.096;17.190;2023-06-22T00:49:09;100526.13;;;21.78;81.61
41706;BME280;27385;51.096;17.190;2023-06-22T00:51:41;100528.16;;;21.79;81.66
41706;BME280;27385;51.096;17.190;2023-06-22T00:54:17;100528.45;;;21.82;81.68
41706;BME280;27385;51.096;17.190;2023-06-22T00:56:54;100542.52;;;21.84;81.68
41706;BME280;27385;51.096;17.190;2023-06-22T00:59:27;100539.46;;;21.84;81.73
41706;BME280;27385;51.096;17.190;2023-06-22T01:02:02;100543.64;;;21.84;81.72
41706;BME280;27385;51.096;17.190;2023-06-22T01:04:38;100536.02;;;21.82;81.92
41706;BME280;27385;51.096;17.190;2023-06-22T01:07:17;100539.98;;;21.77;82.16
41706;BME280;27385;51.096;17.190;2023-06-22T01:09:57;100537.19;;;21.68;82.25
41706;BME280;27385;51.096;17.190;2023-06-22T01:12:34;100536.84;;;21.60;82.58
41706;BME280;27385;51.096;17.190;2023-06-22T01:15:10;100531.24;;;21.56;82.44
41706;BME280;27385;51.096;17.190;2023-06-22T01:17:45;100533.33;;;21.56;82.55
41706;BME280;27385;51.096;17.190;2023-06-22T01:20:18;100533.55;;;21.55;82.55
41706;BME280;27385;51.096;17.190;2023-06-22T01:23:16;100535.02;;;21.54;82.59
41706;BME280;27385;51.096;17.190;2023-06-22T01:25:57;100541.48;;;21.48;82.64
41706;BME280;27385;51.096;17.190;2023-06-22T01:28:41;100543.68;;;21.42;82.72
41706;BME280;27385;51.096;17.190;2023-06-22T01:31:17;100547.20;;;21.40;82.95
41706;BME280;27385;51.096;17.190;2023-06-22T01:33:53;100553.23;;;21.35;83.09
41706;BME280;27385;51.096;17.190;2023-06-22T01:36:26;100548.16;;;21.30;83.27
41706;BME280;27385;51.096;17.190;2023-06-22T01:38:58;100548.35;;;21.25;83.45
41706;BME280;27385;51.096;17.190;2023-06-22T01:41:37;100550.09;;;21.22;83.43
41706;BME280;27385;51.096;17.190;2023-06-22T01:44:09;100551.41;;;21.22;83.50
41706;BME280;27385;51.096;17.190;2023-06-22T01:46:42;100549.92;;;21.19;83.51
41706;BME280;27385;51.096;17.190;2023-06-22T01:49:14;100552.63;;;21.16;83.78
41706;BME280;27385;51.096;17.190;2023-06-22T01:51:50;100553.20;;;21.15;83.48
41706;BME280;27385;51.096;17.190;2023-06-22T01:54:23;100557.98;;;21.13;83.38
41706;BME280;27385;51.096;17.190;2023-06-22T01:56:54;100555.47;;;21.10;83.43
41706;BME280;27385;51.096;17.190;2023-06-22T01:59:28;100555.23;;;21.07;83.58
41706;BME280;27385;51.096;17.190;2023-06-22T02:02:04;100555.71;;;21.03;83.67
41706;BME280;27385;51.096;17.190;2023-06-22T02:04:44;100553.34;;;20.98;83.62
41706;BME280;27385;51.096;17.190;2023-06-22T02:07:22;100556.89;;;20.93;83.59
41706;BME280;27385;51.096;17.190;2023-06-22T02:10:00;100556.29;;;20.89;83.78
41706;BME280;27385;51.096;17.190;2023-06-22T02:12:38;100558.64;;;20.85;83.89
41706;BME280;27385;51.096;17.190;2023-06-22T02:15:11;100560.13;;;20.83;83.92
41706;BME280;27385;51.096;17.190;2023-06-22T02:17:47;100562.09;;;20.80;84.06
41706;BME280;27385;51.096;17.190;2023-06-22T02:20:19;100559.02;;;20.78;83.95
41706;BME280;27385;51.096;17.190;2023-06-22T02:22:51;100560.17;;;20.74;84.06
41706;BME280;27385;51.096;17.190;2023-06-22T02:25:22;100556.37;;;20.70;84.00
41706;BME280;27385;51.096;17.190;2023-06-22T02:27:53;100555.07;;;20.68;84.14
41706;BME280;27385;51.096;17.190;2023-06-22T02:30:24;100553.48;;;20.64;84.03
41706;BME280;27385;51.096;17.190;2023-06-22T02:32:56;100556.20;;;20.59;84.18
41706;BME280;27385;51.096;17.190;2023-06-22T02:35:32;100557.77;;;20.55;84.33
41706;BME280;27385;51.096;17.190;2023-06-22T02:38:08;100556.47;;;20.52;84.27
41706;BME280;27385;51.096;17.190;2023-06-22T02:40:39;100557.70;;;20.49;84.57
41706;BME280;27385;51.096;17.190;2023-06-22T02:43:10;100558.27;;;20.47;84.86
41706;BME280;27385;51.096;17.190;2023-06-22T02:45:41;100556.39;;;20.44;84.74
41706;BME280;27385;51.096;17.190;2023-06-22T02:48:12;100552.64;;;20.41;84.83
41706;BME280;27385;51.096;17.190;2023-06-22T02:50:44;100552.98;;;20.38;84.99
41706;BME280;27385;51.096;17.190;2023-06-22T02:53:16;100553.75;;;20.36;85.04
41706;BME280;27385;51.096;17.190;2023-06-22T02:55:47;100552.96;;;20.34;85.00
41706;BME280;27385;51.096;17.190;2023-06-22T02:58:19;100553.42;;;20.30;85.04
41706;BME280;27385;51.096;17.190;2023-06-22T03:00:51;100553.28;;;20.27;85.20
41706;BME280;27385;51.096;17.190;2023-06-22T03:03:23;100559.66;;;20.23;85.26
41706;BME280;27385;51.096;17.190;2023-06-22T03:05:55;100558.66;;;20.21;85.37
41706;BME280;27385;51.096;17.190;2023-06-22T03:08:27;100562.23;;;20.18;85.58
41706;BME280;27385;51.096;17.190;2023-06-22T03:10:59;100561.13;;;20.15;85.70
41706;BME280;27385;51.096;17.190;2023-06-22T03:13:30;100554.81;;;20.15;85.88
41706;BME280;27385;51.096;17.190;2023-06-22T03:16:01;100559.91;;;20.15;85.98
41706;BME280;27385;51.096;17.190;2023-06-22T03:18:32;100561.02;;;20.13;86.10
41706;BME280;27385;51.096;17.190;2023-06-22T03:21:03;100569.64;;;20.13;86.49
41706;BME280;27385;51.096;17.190;2023-06-22T03:23:35;100572.73;;;20.13;87.15
41706;BME280;27385;51.096;17.190;2023-06-22T03:26:07;100575.45;;;20.10;87.42
41706;BME280;27385;51.096;17.190;2023-06-22T03:28:39;100583.52;;;20.08;87.63
41706;BME280;27385;51.096;17.190;2023-06-22T03:31:10;100587.48;;;20.04;87.93
41706;BME280;27385;51.096;17.190;2023-06-22T03:33:41;100592.61;;;20.02;88.12
41706;BME280;27385;51.096;17.190;2023-06-22T03:36:12;100599.63;;;20.01;88.07
41706;BME280;27385;51.096;17.190;2023-06-22T03:38:43;100597.09;;;20.03;88.04
41706;BME280;27385;51.096;17.190;2023-06-22T03:41:15;100596.71;;;20.07;88.03
41706;BME280;27385;51.096;17.190;2023-06-22T03:43:47;100599.44;;;20.08;88.13
41706;BME280;27385;51.096;17.190;2023-06-22T03:46:18;100603.33;;;20.10;88.45
41706;BME280;27385;51.096;17.190;2023-06-22T03:48:50;100604.07;;;20.12;88.50
41706;BME280;27385;51.096;17.190;2023-06-22T03:51:21;100611.52;;;20.14;88.56
41706;BME280;27385;51.096;17.190;2023-06-22T03:53:52;100615.48;;;20.18;88.68
41706;BME280;27385;51.096;17.190;2023-06-22T03:56:23;100606.98;;;20.23;88.80
41706;BME280;27385;51.096;17.190;2023-06-22T03:58:54;100612.80;;;20.28;88.83
41706;BME280;27385;51.096;17.190;2023-06-22T04:01:25;100617.64;;;20.32;88.94
41706;BME280;27385;51.096;17.190;2023-06-22T04:03:56;100623.88;;;20.35;89.20
41706;BME280;27385;51.096;17.190;2023-06-22T04:06:27;100621.08;;;20.39;89.08
41706;BME280;27385;51.096;17.190;2023-06-22T04:08:59;100623.33;;;20.44;88.86
41706;BME280;27385;51.096;17.190;2023-06-22T04:11:30;100625.23;;;20.48;89.28
41706;BME280;27385;51.096;17.190;2023-06-22T04:14:01;100630.74;;;20.48;89.10
41706;BME280;27385;51.096;17.190;2023-06-22T04:16:32;100626.71;;;20.51;89.09
41706;BME280;27385;51.096;17.190;2023-06-22T04:19:03;100626.83;;;20.57;89.47
41706;BME280;27385;51.096;17.190;2023-06-22T04:21:34;100628.66;;;20.60;89.61
41706;BME280;27385;51.096;17.190;2023-06-22T04:24:09;100628.08;;;20.63;89.50
41706;BME280;27385;51.096;17.190;2023-06-22T04:26:40;100635.35;;;20.70;89.53
41706;BME280;27385;51.096;17.190;2023-06-22T04:29:12;100642.14;;;20.77;89.72
41706;BME280;27385;51.096;17.190;2023-06-22T04:31:43;100641.12;;;20.83;89.77
41706;BME280;27385;51.096;17.190;2023-06-22T04:34:14;100645.36;;;20.89;90.01
41706;BME280;27385;51.096;17.190;2023-06-22T04:36:45;100644.06;;;20.92;89.87
41706;BME280;27385;51.096;17.190;2023-06-22T04:39:16;100645.20;;;20.96;89.63
41706;BME280;27385;51.096;17.190;2023-06-22T04:41:49;100649.75;;;21.01;89.51
41706;BME280;27385;51.096;17.190;2023-06-22T04:44:21;100649.63;;;21.06;89.42
41706;BME280;27385;51.096;17.190;2023-06-22T04:46:55;100645.54;;;21.13;89.34
41706;BME280;27385;51.096;17.190;2023-06-22T04:49:30;100649.58;;;21.18;89.55
41706;BME280;27385;51.096;17.190;2023-06-22T04:52:05;100653.27;;;21.20;89.32
41706;BME280;27385;51.096;17.190;2023-06-22T04:54:39;100652.59;;;21.26;89.64
41706;BME280;27385;51.096;17.190;2023-06-22T04:57:15;100654.27;;;21.33;89.40
41706;BME280;27385;51.096;17.190;2023-06-22T04:59:47;100657.78;;;21.40;89.35
41706;BME280;27385;51.096;17.190;2023-06-22T05:02:17;100659.02;;;21.49;89.51
41706;BME280;27385;51.096;17.190;2023-06-22T05:04:49;100656.67;;;21.55;89.36
41706;BME280;27385;51.096;17.190;2023-06-22T05:07:25;100661.56;;;21.64;89.39
41706;BME280;27385;51.096;17.190;2023-06-22T05:09:56;100665.33;;;21.73;89.13
41706;BME280;27385;51.096;17.190;2023-06-22T05:12:29;100664.30;;;21.85;88.94
41706;BME280;27385;51.096;17.190;2023-06-22T05:15:00;100665.87;;;21.94;88.76
41706;BME280;27385;51.096;17.190;2023-06-22T05:17:32;100656.79;;;22.02;88.75
41706;BME280;27385;51.096;17.190;2023-06-22T05:20:05;100655.73;;;22.09;88.57
41706;BME280;27385;51.096;17.190;2023-06-22T05:22:39;100652.89;;;22.10;88.39
41706;BME280;27385;51.096;17.190;2023-06-22T05:25:14;100659.96;;;22.16;88.27
41706;BME280;27385;51.096;17.190;2023-06-22T05:27:46;100663.29;;;22.17;88.05
41706;BME280;27385;51.096;17.190;2023-06-22T05:30:17;100658.14;;;22.26;87.98
41706;BME280;27385;51.096;17.190;2023-06-22T05:32:48;100653.42;;;22.36;87.67
41706;BME280;27385;51.096;17.190;2023-06-22T05:35:22;100656.23;;;22.48;87.20
41706;BME280;27385;51.096;17.190;2023-06-22T05:37:53;100652.71;;;22.61;87.00
41706;BME280;27385;51.096;17.190;2023-06-22T05:40:24;100658.81;;;22.72;86.48
41706;BME280;27385;51.096;17.190;2023-06-22T05:42:56;100657.13;;;22.84;85.57
41706;BME280;27385;51.096;17.190;2023-06-22T05:45:27;100657.49;;;22.96;84.96
41706;BME280;27385;51.096;17.190;2023-06-22T05:47:58;100657.49;;;23.04;84.18
41706;BME280;27385;51.096;17.190;2023-06-22T05:50:29;100658.48;;;23.14;84.26
41706;BME280;27385;51.096;17.190;2023-06-22T05:53:01;100663.71;;;23.24;83.70
41706;BME280;27385;51.096;17.190;2023-06-22T05:55:31;100661.20;;;23.33;83.03
41706;BME280;27385;51.096;17.190;2023-06-22T05:58:03;100661.52;;;23.39;81.71
41706;BME280;27385;51.096;17.190;2023-06-22T06:00:34;100662.13;;;23.42;81.59
41706;BME280;27385;51.096;17.190;2023-06-22T06:03:06;100665.25;;;23.49;81.07
41706;BME280;27385;51.096;17.190;2023-06-22T06:05:38;100670.96;;;23.51;80.56
41706;BME280;27385;51.096;17.190;2023-06-22T06:08:09;100672.03;;;23.57;80.53
41706;BME280;27385;51.096;17.190;2023-06-22T06:10:40;100669.31;;;23.60;80.13
41706;BME280;27385;51.096;17.190;2023-06-22T06:13:11;100660.63;;;23.63;79.54
41706;BME280;27385;51.096;17.190;2023-06-22T06:15:42;100664.73;;;23.64;79.45
41706;BME280;27385;51.096;17.190;2023-06-22T06:18:13;100666.55;;;23.69;79.27
41706;BME280;27385;51.096;17.190;2023-06-22T06:20:44;100666.86;;;23.75;78.71
41706;BME280;27385;51.096;17.190;2023-06-22T06:23:15;100667.30;;;23.80;78.16
41706;BME280;27385;51.096;17.190;2023-06-22T06:25:46;100671.58;;;23.82;77.90
41706;BME280;27385;51.096;17.190;2023-06-22T06:28:17;100679.42;;;23.85;77.31
41706;BME280;27385;51.096;17.190;2023-06-22T06:30:49;100679.48;;;23.83;76.99
41706;BME280;27385;51.096;17.190;2023-06-22T06:33:21;100682.56;;;23.82;76.42
41706;BME280;27385;51.096;17.190;2023-06-22T06:35:53;100687.83;;;23.85;76.84
41706;BME280;27385;51.096;17.190;2023-06-22T06:38:26;100686.82;;;23.95;76.39
41706;BME280;27385;51.096;17.190;2023-06-22T06:40:58;100686.64;;;24.01;76.45
41706;BME280;27385;51.096;17.190;2023-06-22T06:43:29;100684.59;;;24.06;75.70
41706;BME280;27385;51.096;17.190;2023-06-22T06:46:00;100686.42;;;24.09;75.60
41706;BME280;27385;51.096;17.190;2023-06-22T06:48:34;100688.09;;;24.13;75.50
41706;BME280;27385;51.096;17.190;2023-06-22T06:51:05;100688.73;;;24.21;75.20
41706;BME280;27385;51.096;17.190;2023-06-22T06:53:41;100687.80;;;24.28;75.05
41706;BME280;27385;51.096;17.190;2023-06-22T06:56:12;100684.76;;;24.36;74.83
41706;BME280;27385;51.096;17.190;2023-06-22T06:58:43;100685.96;;;24.41;74.46
41706;BME280;27385;51.096;17.190;2023-06-22T07:01:15;100688.45;;;24.46;74.39
41706;BME280;27385;51.096;17.190;2023-06-22T07:03:46;100690.40;;;24.48;74.01
41706;BME280;27385;51.096;17.190;2023-06-22T07:06:17;100692.63;;;24.52;74.18
41706;BME280;27385;51.096;17.190;2023-06-22T07:08:48;100695.38;;;24.58;74.12
41706;BME280;27385;51.096;17.190;2023-06-22T07:11:20;100700.61;;;24.68;74.22
41706;BME280;27385;51.096;17.190;2023-06-22T07:14:11;100699.37;;;24.77;73.60
41706;BME280;27385;51.096;17.190;2023-06-22T07:16:44;100699.54;;;24.83;73.17
41706;BME280;27385;51.096;17.190;2023-06-22T07:19:16;100703.85;;;24.86;73.09
41706;BME280;27385;51.096;17.190;2023-06-22T07:21:55;100706.56;;;24.91;72.90
41706;BME280;27385;51.096;17.190;2023-06-22T07:24:26;100708.09;;;24.93;72.59
41706;BME280;27385;51.096;17.190;2023-06-22T07:26:57;100716.34;;;24.88;72.20
41706;BME280;27385;51.096;17.190;2023-06-22T07:29:30;100713.65;;;24.90;72.30
41706;BME280;27385;51.096;17.190;2023-06-22T07:32:12;100716.48;;;24.97;72.14
41706;BME280;27385;51.096;17.190;2023-06-22T07:34:43;100716.34;;;25.05;72.33
41706;BME280;27385;51.096;17.190;2023-06-22T07:37:15;100720.88;;;25.12;71.59
41706;BME280;27385;51.096;17.190;2023-06-22T07:39:46;100721.38;;;25.17;71.34
41706;BME280;27385;51.096;17.190;2023-06-22T07:42:17;100718.80;;;25.22;71.00
41706;BME280;27385;51.096;17.190;2023-06-22T07:44:49;100715.26;;;25.28;70.40
41706;BME280;27385;51.096;17.190;2023-06-22T07:47:23;100712.42;;;25.33;70.35
41706;BME280;27385;51.096;17.190;2023-06-22T07:49:57;100706.06;;;25.38;69.91
41706;BME280;27385;51.096;17.190;2023-06-22T07:52:31;100704.27;;;25.43;69.86
41706;BME280;27385;51.096;17.190;2023-06-22T07:55:03;100706.95;;;25.50;69.81
41706;BME280;27385;51.096;17.190;2023-06-22T07:57:34;100707.99;;;25.56;69.77
41706;BME280;27385;51.096;17.190;2023-06-22T08:00:08;100709.55;;;25.55;69.10
41706;BME280;27385;51.096;17.190;2023-06-22T08:02:45;100710.33;;;25.48;68.98
41706;BME280;27385;51.096;17.190;2023-06-22T08:05:17;100711.89;;;25.45;68.73
41706;BME280;27385;51.096;17.190;2023-06-22T08:07:50;100708.27;;;25.46;68.73
41706;BME280;27385;51.096;17.190;2023-06-22T08:10:22;100701.32;;;25.52;68.69
41706;BME280;27385;51.096;17.190;2023-06-22T08:12:53;100693.33;;;25.58;68.71
41706;BME280;27385;51.096;17.190;2023-06-22T08:15:25;100697.58;;;25.58;68.30
41706;BME280;27385;51.096;17.190;2023-06-22T08:17:58;100697.66;;;25.62;68.33
41706;BME280;27385;51.096;17.190;2023-06-22T08:20:30;100696.89;;;25.67;67.98
41706;BME280;27385;51.096;17.190;2023-06-22T08:23:00;100698.48;;;25.73;68.04
41706;BME280;27385;51.096;17.190;2023-06-22T08:25:36;100693.89;;;25.82;67.59
41706;BME280;27385;51.096;17.190;2023-06-22T08:28:07;100694.73;;;25.91;67.40
41706;BME280;27385;51.096;17.190;2023-06-22T08:30:38;100694.99;;;25.98;67.00
41706;BME280;27385;51.096;17.190;2023-06-22T08:33:09;100692.32;;;26.00;67.15
41706;BME280;27385;51.096;17.190;2023-06-22T08:35:41;100689.83;;;26.09;67.64
41706;BME280;27385;51.096;17.190;2023-06-22T08:38:12;100684.32;;;26.19;67.47
41706;BME280;27385;51.096;17.190;2023-06-22T08:40:45;100675.73;;;26.26;65.94
41706;BME280;27385;51.096;17.190;2023-06-22T08:43:16;100671.05;;;26.25;66.34
41706;BME280;27385;51.096;17.190;2023-06-22T08:45:48;100665.13;;;26.34;66.01
41706;BME280;27385;51.096;17.190;2023-06-22T08:48:20;100662.35;;;26.40;65.76
41706;BME280;27385;51.096;17.190;2023-06-22T08:50:51;100660.28;;;26.41;65.32
41706;BME280;27385;51.096;17.190;2023-06-22T08:53:22;100661.52;;;26.39;65.19
41706;BME280;27385;51.096;17.190;2023-06-22T08:55:54;100658.11;;;26.40;64.45
41706;BME280;27385;51.096;17.190;2023-06-22T08:58:24;100653.66;;;26.36;64.37
41706;BME280;27385;51.096;17.190;2023-06-22T09:00:55;100657.50;;;26.40;64.35
41706;BME280;27385;51.096;17.190;2023-06-22T09:03:27;100656.50;;;26.42;64.11
41706;BME280;27385;51.096;17.190;2023-06-22T09:05:57;100657.23;;;26.49;64.44
41706;BME280;27385;51.096;17.190;2023-06-22T09:08:28;100658.23;;;26.55;64.08
41706;BME280;27385;51.096;17.190;2023-06-22T09:11:00;100657.63;;;26.68;64.42
41706;BME280;27385;51.096;17.190;2023-06-22T09:13:32;100654.21;;;26.79;63.46
41706;BME280;27385;51.096;17.190;2023-06-22T09:16:04;100660.87;;;26.81;63.34
41706;BME280;27385;51.096;17.190;2023-06-22T09:18:37;100659.67;;;26.85;62.34
41706;BME280;27385;51.096;17.190;2023-06-22T09:21:08;100658.27;;;26.89;61.65
41706;BME280;27385;51.096;17.190;2023-06-22T09:23:39;100661.80;;;26.87;61.51
41706;BME280;27385;51.096;17.190;2023-06-22T09:26:12;100666.21;;;26.83;60.64
41706;BME280;27385;51.096;17.190;2023-06-22T09:28:43;100667.92;;;26.75;59.74
41706;BME280;27385;51.096;17.190;2023-06-22T09:31:15;100668.42;;;26.67;59.88
41706;BME280;27385;51.096;17.190;2023-06-22T09:33:49;100668.37;;;26.71;59.93
41706;BME280;27385;51.096;17.190;2023-06-22T09:36:20;100668.91;;;26.78;59.24
41706;BME280;27385;51.096;17.190;2023-06-22T09:38:51;100664.80;;;26.83;58.88
41706;BME280;27385;51.096;17.190;2023-06-22T09:41:25;100662.80;;;26.87;58.69
41706;BME280;27385;51.096;17.190;2023-06-22T09:43:56;100663.66;;;26.93;59.11
41706;BME280;27385;51.096;17.190;2023-06-22T09:46:26;100663.42;;;27.02;58.78
41706;BME280;27385;51.096;17.190;2023-06-22T09:48:58;100661.69;;;27.07;57.96
41706;BME280;27385;51.096;17.190;2023-06-22T09:51:29;100657.67;;;27.02;57.20
41706;BME280;27385;51.096;17.190;2023-06-22T09:54:00;100656.18;;;27.01;57.45
41706;BME280;27385;51.096;17.190;2023-06-22T09:56:31;100652.92;;;27.08;57.17
41706;BME280;27385;51.096;17.190;2023-06-22T09:59:02;100656.70;;;27.14;57.04
41706;BME280;27385;51.096;17.190;2023-06-22T10:01:32;100662.52;;;27.16;56.47
41706;BME280;27385;51.096;17.190;2023-06-22T10:04:03;100651.76;;;27.14;56.56
41706;BME280;27385;51.096;17.190;2023-06-22T10:06:35;100647.64;;;27.25;57.01
41706;BME280;27385;51.096;17.190;2023-06-22T10:09:05;100655.29;;;27.36;56.53
41706;BME280;27385;51.096;17.190;2023-06-22T10:11:36;100647.23;;;27.42;56.44
41706;BME280;27385;51.096;17.190;2023-06-22T10:14:07;100655.14;;;27.50;56.53
41706;BME280;27385;51.096;17.190;2023-06-22T10:16:38;100655.21;;;27.58;56.04
41706;BME280;27385;51.096;17.190;2023-06-22T10:19:10;100656.50;;;27.63;55.62
41706;BME280;27385;51.096;17.190;2023-06-22T10:21:41;100654.84;;;27.62;55.42
41706;BME280;27385;51.096;17.190;2023-06-22T10:24:12;100647.86;;;27.59;54.83
41706;BME280;27385;51.096;17.190;2023-06-22T10:26:43;100645.73;;;27.49;54.85
41706;BME280;27385;51.096;17.190;2023-06-22T10:29:14;100641.64;;;27.50;54.93
41706;BME280;27385;51.096;17.190;2023-06-22T10:31:45;100635.49;;;27.52;54.25
41706;BME280;27385;51.096;17.190;2023-06-22T10:34:16;100632.98;;;27.48;54.38
41706;BME280;27385;51.096;17.190;2023-06-22T10:36:47;100626.94;;;27.51;54.55
41706;BME280;27385;51.096;17.190;2023-06-22T10:39:18;100624.24;;;27.61;54.39
41706;BME280;27385;51.096;17.190;2023-06-22T10:41:49;100619.70;;;27.67;54.05
41706;BME280;27385;51.096;17.190;2023-06-22T10:44:20;100617.96;;;27.72;53.87
41706;BME280;27385;51.096;17.190;2023-06-22T10:46:52;100615.20;;;27.73;53.06
41706;BME280;27385;51.096;17.190;2023-06-22T10:49:23;100608.08;;;27.74;53.36
41706;BME280;27385;51.096;17.190;2023-06-22T10:51:54;100605.52;;;27.81;53.25
41706;BME280;27385;51.096;17.190;2023-06-22T10:54:24;100600.96;;;27.83;53.06
41706;BME280;27385;51.096;17.190;2023-06-22T10:56:55;100597.23;;;27.86;52.96
41706;BME280;27385;51.096;17.190;2023-06-22T10:59:26;100600.13;;;27.89;52.98
41706;BME280;27385;51.096;17.190;2023-06-22T11:01:58;100602.35;;;27.91;52.58
41706;BME280;27385;51.096;17.190;2023-06-22T11:04:29;100604.02;;;27.92;51.94
41706;BME280;27385;51.096;17.190;2023-06-22T11:07:00;100597.95;;;27.83;51.64
41706;BME280;27385;51.096;17.190;2023-06-22T11:09:31;100598.20;;;27.77;51.84
41706;BME280;27385;51.096;17.190;2023-06-22T11:12:02;100596.50;;;27.76;50.96
41706;BME280;27385;51.096;17.190;2023-06-22T11:14:33;100593.86;;;27.75;51.46
41706;BME280;27385;51.096;17.190;2023-06-22T11:17:05;100589.45;;;27.73;50.72
41706;BME280;27385;51.096;17.190;2023-06-22T11:19:36;100589.27;;;27.66;50.59
41706;BME280;27385;51.096;17.190;2023-06-22T11:22:07;100589.65;;;27.70;51.00
41706;BME280;27385;51.096;17.190;2023-06-22T11:24:38;100590.05;;;27.81;50.96
41706;BME280;27385;51.096;17.190;2023-06-22T11:27:10;100589.06;;;27.86;50.89
41706;BME280;27385;51.096;17.190;2023-06-22T11:29:41;100585.54;;;27.93;50.57
41706;BME280;27385;51.096;17.190;2023-06-22T11:32:12;100586.06;;;27.97;50.53
41706;BME280;27385;51.096;17.190;2023-06-22T11:34:45;100587.59;;;27.99;49.93
41706;BME280;27385;51.096;17.190;2023-06-22T11:37:16;100578.17;;;27.95;49.79
41706;BME280;27385;51.096;17.190;2023-06-22T11:39:47;100576.54;;;27.98;50.00
41706;BME280;27385;51.096;17.190;2023-06-22T11:42:18;100578.04;;;28.08;49.68
41706;BME280;27385;51.096;17.190;2023-06-22T11:44:48;100575.48;;;28.15;49.94
41706;BME280;27385;51.096;17.190;2023-06-22T11:47:20;100571.25;;;28.27;49.80
41706;BME280;27385;51.096;17.190;2023-06-22T11:49:50;100575.70;;;28.37;49.07
41706;BME280;27385;51.096;17.190;2023-06-22T11:52:22;100574.86;;;28.45;48.88
41706;BME280;27385;51.096;17.190;2023-06-22T11:54:54;100567.09;;;28.48;48.81
41706;BME280;27385;51.096;17.190;2023-06-22T11:57:24;100567.60;;;28.52;48.69
41706;BME280;27385;51.096;17.190;2023-06-22T11:59:55;100563.16;;;28.56;48.03
41706;BME280;27385;51.096;17.190;2023-06-22T12:02:26;100567.67;;;28.56;48.04
41706;BME280;27385;51.096;17.190;2023-06-22T12:04:57;100567.36;;;28.56;47.44
41706;BME280;27385;51.096;17.190;2023-06-22T12:07:28;100561.92;;;28.50;47.25
41706;BME280;27385;51.096;17.190;2023-06-22T12:09:59;100561.98;;;28.53;47.51
41706;BME280;27385;51.096;17.190;2023-06-22T12:12:31;100556.15;;;28.55;47.54
41706;BME280;27385;51.096;17.190;2023-06-22T12:15:02;100549.91;;;28.57;47.41
41706;BME280;27385;51.096;17.190;2023-06-22T12:17:35;100551.69;;;28.62;46.63
41706;BME280;27385;51.096;17.190;2023-06-22T12:20:08;100542.36;;;28.61;46.87
41706;BME280;27385;51.096;17.190;2023-06-22T12:22:40;100538.40;;;28.64;47.02
41706;BME280;27385;51.096;17.190;2023-06-22T12:25:12;100532.45;;;28.69;46.90
41706;BME280;27385;51.096;17.190;2023-06-22T12:27:43;100527.24;;;28.74;46.65
41706;BME280;27385;51.096;17.190;2023-06-22T12:30:15;100526.19;;;28.75;46.21
41706;BME280;27385;51.096;17.190;2023-06-22T12:32:46;100531.05;;;28.80;46.38
41706;BME280;27385;51.096;17.190;2023-06-22T12:35:17;100522.85;;;28.86;46.35
41706;BME280;27385;51.096;17.190;2023-06-22T12:37:48;100523.66;;;28.91;46.20
41706;BME280;27385;51.096;17.190;2023-06-22T12:40:27;100518.38;;;28.88;45.64
41706;BME280;27385;51.096;17.190;2023-06-22T12:42:59;100516.19;;;28.80;45.76
41706;BME280;27385;51.096;17.190;2023-06-22T12:45:51;100510.84;;;28.81;45.30
41706;BME280;27385;51.096;17.190;2023-06-22T12:48:25;100509.92;;;28.78;45.42
41706;BME280;27385;51.096;17.190;2023-06-22T12:50:56;100507.50;;;28.75;45.03
41706;BME280;27385;51.096;17.190;2023-06-22T12:53:28;100508.67;;;28.71;45.59
41706;BME280;27385;51.096;17.190;2023-06-22T12:55:58;100506.40;;;28.74;45.59
41706;BME280;27385;51.096;17.190;2023-06-22T12:58:29;100505.60;;;28.78;45.56
41706;BME280;27385;51.096;17.190;2023-06-22T13:01:00;100500.26;;;28.82;45.61
41706;BME280;27385;51.096;17.190;2023-06-22T13:03:31;100496.79;;;28.83;45.30
41706;BME280;27385;51.096;17.190;2023-06-22T13:06:04;100492.30;;;28.85;45.18